createdAt,value
2023-10-26T00:00:51.849Z,98660.78
2023-10-26T00:04:53.418Z,98666.75
2023-10-26T00:08:55.118Z,98658.19
2023-10-26T00:12:56.775Z,98670.22
2023-10-26T00:16:58.400Z,98667.63
2023-10-26T00:21:01.309Z,98660.75
2023-10-26T00:25:03.041Z,98670.22
2023-10-26T00:29:04.766Z,98670.25
2023-10-26T00:33:06.394Z,98661.66
2023-10-26T00:37:08.118Z,98670.25
2023-10-26T00:41:09.813Z,98661.66
2023-10-26T00:45:11.409Z,98659.09
2023-10-26T00:49:16.605Z,98665.09
2023-10-26T00:53:20.759Z,98659.06
2023-10-26T00:57:24.936Z,98660.81
2023-10-26T01:01:27.748Z,98663.38
2023-10-26T01:05:29.335Z,98665.91
2023-10-26T01:09:31.077Z,98682.22
2023-10-26T01:13:34.342Z,98677.94
2023-10-26T01:17:36.736Z,98678.78
2023-10-26T01:21:54.608Z,98680.50
2023-10-26T01:25:57.012Z,98681.38
2023-10-26T01:29:59.668Z,98684.78
2023-10-26T01:34:01.360Z,98688.25
2023-10-26T01:38:03.459Z,98682.22
2023-10-26T01:42:07.279Z,98689.06
2023-10-26T01:46:08.866Z,98689.09
2023-10-26T01:50:11.075Z,98687.41
2023-10-26T01:54:13.002Z,98689.97
2023-10-26T01:58:14.755Z,98690.84
2023-10-26T02:02:16.357Z,98689.97
2023-10-26T02:06:18.173Z,98704.53
2023-10-26T02:10:19.984Z,98710.53
2023-10-26T02:14:21.983Z,98710.56
2023-10-26T02:18:23.651Z,98708.81
2023-10-26T02:22:25.323Z,98708.84
2023-10-26T02:26:27.015Z,98700.25
2023-10-26T02:30:28.617Z,98703.69
2023-10-26T02:34:30.305Z,98709.69
2023-10-26T02:38:31.964Z,98712.25
2023-10-26T02:42:34.400Z,98710.53
2023-10-26T02:46:35.965Z,98720.81
2023-10-26T02:50:37.580Z,98724.22
2023-10-26T02:54:39.174Z,98713.09
2023-10-26T02:58:40.899Z,98719.94
2023-10-26T03:02:42.582Z,98725.06
2023-10-26T03:06:44.317Z,98717.38
2023-10-26T03:10:46.048Z,98724.22
2023-10-26T03:14:47.719Z,98722.53
2023-10-26T03:18:49.367Z,98717.38
2023-10-26T03:22:50.975Z,98720.84
2023-10-26T03:26:52.594Z,98708.81
2023-10-26T03:30:54.515Z,98720.84
2023-10-26T03:34:58.518Z,98720.81
2023-10-26T03:39:00.219Z,98712.22
2023-10-26T03:43:01.826Z,98714.81
2023-10-26T03:47:03.628Z,98718.25
2023-10-26T03:51:05.886Z,98703.69
2023-10-26T03:55:07.804Z,98713.13
2023-10-26T03:59:09.435Z,98712.28
2023-10-26T04:03:11.145Z,98704.53
2023-10-26T04:07:12.816Z,98713.09
2023-10-26T04:11:18.456Z,98709.69
2023-10-26T04:15:20.194Z,98715.66
2023-10-26T04:19:21.834Z,98723.41
2023-10-26T04:23:23.518Z,98718.25
2023-10-26T04:27:25.936Z,98712.25
2023-10-26T04:31:27.627Z,98718.25
2023-10-26T04:35:29.452Z,98706.28
2023-10-26T04:39:31.015Z,98703.69
2023-10-26T04:43:32.905Z,98701.94
2023-10-26T04:47:34.563Z,98702.81
2023-10-26T04:51:36.333Z,98718.25
2023-10-26T04:55:37.979Z,98716.53
2023-10-26T04:59:39.516Z,98706.22
2023-10-26T05:03:41.509Z,98710.50
2023-10-26T05:07:43.703Z,98703.69
2023-10-26T05:11:45.356Z,98704.53
2023-10-26T05:15:47.115Z,98706.28
2023-10-26T05:19:48.862Z,98691.72
2023-10-26T05:23:50.515Z,98688.28
2023-10-26T05:27:54.277Z,98686.56
2023-10-26T05:31:56.604Z,98683.13
2023-10-26T05:35:58.322Z,98683.97
2023-10-26T05:39:59.910Z,98683.16
2023-10-26T05:44:01.558Z,98680.56
2023-10-26T05:48:05.000Z,98677.97
2023-10-26T05:52:06.724Z,98666.00
2023-10-26T05:56:08.557Z,98666.84
2023-10-26T06:00:11.125Z,98669.41
2023-10-26T06:04:15.364Z,98672.00
2023-10-26T06:08:17.290Z,98678.00
2023-10-26T06:12:18.977Z,98677.13
2023-10-26T06:16:21.449Z,98680.56
2023-10-26T06:20:28.726Z,98687.41
2023-10-26T06:24:30.425Z,98703.69
2023-10-26T06:28:32.132Z,98692.53
2023-10-26T06:32:33.866Z,98706.28
2023-10-26T06:36:35.581Z,98685.69
2023-10-26T06:40:37.198Z,98698.56
2023-10-26T06:44:40.424Z,98708.84
2023-10-26T06:48:42.197Z,98690.84
2023-10-26T06:52:44.344Z,98700.25
2023-10-26T06:56:45.921Z,98693.38
2023-10-26T07:00:52.608Z,98692.50
2023-10-26T07:04:55.370Z,98691.66
2023-10-26T07:08:57.102Z,98683.06
2023-10-26T07:12:58.822Z,98680.53
2023-10-26T07:17:00.482Z,98678.81
2023-10-26T07:21:06.893Z,98675.38
2023-10-26T07:25:08.901Z,98674.47
2023-10-26T07:29:10.545Z,98673.53
2023-10-26T07:33:12.269Z,98667.47
2023-10-26T07:37:14.250Z,98661.44
2023-10-26T07:41:15.892Z,98661.44
2023-10-26T07:45:17.648Z,98651.97
2023-10-26T07:49:19.449Z,98655.44
2023-10-26T07:53:20.993Z,98647.75
2023-10-26T07:57:22.669Z,98649.41
2023-10-26T08:01:24.288Z,98646.72
2023-10-26T08:05:26.419Z,98640.66
2023-10-26T08:09:35.231Z,98637.19
2023-10-26T08:13:37.275Z,98643.94
2023-10-26T08:17:39.149Z,98643.06
2023-10-26T08:21:41.590Z,98644.66
2023-10-26T08:25:43.192Z,98654.75
2023-10-26T08:29:44.835Z,98630.75
2023-10-26T08:33:46.518Z,98633.38
2023-10-26T08:37:48.318Z,98642.81
2023-10-26T08:41:55.783Z,98657.38
2023-10-26T08:46:00.207Z,98661.59
2023-10-26T08:50:15.575Z,98664.22
2023-10-26T08:54:18.510Z,98688.28
2023-10-26T08:58:21.117Z,98698.69
2023-10-26T09:02:22.869Z,98721.06
2023-10-26T09:06:24.739Z,98728.84
2023-10-26T09:10:31.385Z,98715.19
2023-10-26T09:14:33.090Z,98737.59
2023-10-26T09:18:35.183Z,98745.41
2023-10-26T09:22:38.218Z,98752.31
2023-10-26T09:26:40.900Z,98742.88
2023-10-26T09:30:43.538Z,98740.28
2023-10-26T09:34:47.140Z,98750.59
2023-10-26T09:38:49.285Z,98729.97
2023-10-26T09:42:51.606Z,98719.69
2023-10-26T09:46:53.598Z,98711.16
2023-10-26T09:50:55.781Z,98698.28
2023-10-26T09:54:57.634Z,98711.16
2023-10-26T09:59:01.188Z,98695.63
2023-10-26T10:03:17.563Z,98697.97
2023-10-26T10:07:39.801Z,98681.56
2023-10-26T10:11:41.519Z,98697.81
2023-10-26T10:15:44.289Z,98691.81
2023-10-26T10:20:14.929Z,98703.75
2023-10-26T10:24:38.916Z,98696.78
2023-10-26T10:28:42.213Z,98684.69
2023-10-26T10:32:44.299Z,98682.81
2023-10-26T10:37:14.420Z,98688.69
2023-10-26T10:41:17.123Z,98687.88
2023-10-26T10:45:19.858Z,98678.47
2023-10-26T10:49:25.053Z,98665.50
2023-10-26T10:53:28.965Z,98674.78
2023-10-26T10:57:30.709Z,98661.84
2023-10-26T11:01:32.388Z,98665.47
2023-10-26T11:05:38.948Z,98651.94
2023-10-26T11:09:40.963Z,98644.28
2023-10-26T11:13:42.759Z,98646.84
2023-10-26T11:17:44.766Z,98647.69
2023-10-26T11:21:46.841Z,98644.47
2023-10-26T11:25:48.803Z,98637.63
2023-10-26T11:30:06.453Z,98618.72
2023-10-26T11:34:10.577Z,98626.41
2023-10-26T11:38:12.214Z,98605.69
2023-10-26T11:42:13.800Z,98596.19
2023-10-26T11:46:15.650Z,98585.94
2023-10-26T11:50:31.929Z,98593.72
2023-10-26T11:54:33.654Z,98587.63
2023-10-26T11:58:36.842Z,98575.28
2023-10-26T12:02:38.583Z,98554.28
2023-10-26T12:06:40.678Z,98560.09
2023-10-26T12:10:42.585Z,98560.72
2023-10-26T12:14:44.414Z,98557.19
2023-10-26T12:18:46.094Z,98544.91
2023-10-26T12:22:53.238Z,98537.03
2023-10-26T12:26:57.866Z,98539.69
2023-10-26T12:30:59.543Z,98538.00
2023-10-26T12:35:01.187Z,98534.56
2023-10-26T12:39:03.973Z,98535.41
2023-10-26T12:43:05.597Z,98516.25
2023-10-26T12:47:07.847Z,98523.72
2023-10-26T12:51:09.535Z,98512.41
2023-10-26T12:55:11.248Z,98506.34
2023-10-26T12:59:12.918Z,98488.72
2023-10-26T13:03:14.558Z,98494.44
2023-10-26T13:07:16.189Z,98503.00
2023-10-26T13:11:17.932Z,98492.63
2023-10-26T13:15:21.233Z,98483.19
2023-10-26T13:19:23.855Z,98485.63
2023-10-26T13:23:25.481Z,98483.06
2023-10-26T13:27:27.312Z,98481.53
2023-10-26T13:31:28.929Z,98481.75
2023-10-26T13:35:31.366Z,98468.06
2023-10-26T13:39:33.116Z,98466.41
2023-10-26T13:43:35.080Z,98460.69
2023-10-26T13:47:36.716Z,98463.38
2023-10-26T13:51:38.571Z,98453.63
2023-10-26T13:55:40.202Z,98446.63
2023-10-26T13:59:42.405Z,98451.88
2023-10-26T14:03:44.069Z,98443.56
2023-10-26T14:07:47.837Z,98454.81
2023-10-26T14:11:49.453Z,98445.38
2023-10-26T14:15:51.008Z,98429.94
2023-10-26T14:19:52.708Z,98438.69
2023-10-26T14:23:54.338Z,98436.19
2023-10-26T14:27:58.138Z,98439.59
2023-10-26T14:31:59.833Z,98433.59
2023-10-26T14:36:01.530Z,98432.91
2023-10-26T14:40:03.423Z,98436.44
2023-10-26T14:44:05.277Z,98438.19
2023-10-26T14:48:06.911Z,98431.34
2023-10-26T14:52:08.530Z,98434.88
2023-10-26T14:56:10.201Z,98431.66
2023-10-26T15:00:12.158Z,98418.91
2023-10-26T15:04:13.749Z,98416.44
2023-10-26T15:08:15.500Z,98420.03
2023-10-26T15:12:17.131Z,98422.72
2023-10-26T15:16:18.829Z,98422.81
2023-10-26T15:20:20.660Z,98410.09
2023-10-26T15:24:22.491Z,98413.56
2023-10-26T15:28:24.341Z,98416.22
2023-10-26T15:32:26.259Z,98410.22
2023-10-26T15:36:27.923Z,98418.00
2023-10-26T15:40:29.553Z,98418.09
2023-10-26T15:44:32.244Z,98424.19
2023-10-26T15:49:34.704Z,98438.91
2023-10-26T15:52:58.569Z,98430.38
2023-10-26T15:57:00.288Z,98439.78
2023-10-26T16:01:04.231Z,98446.72
2023-10-26T16:05:06.330Z,98448.47
2023-10-26T16:09:07.896Z,98444.28
2023-10-26T16:13:09.524Z,98439.34
2023-10-26T16:17:11.132Z,98450.59
2023-10-26T16:21:16.087Z,98460.91
2023-10-26T16:25:17.771Z,98458.34
2023-10-26T16:29:19.481Z,98452.41
2023-10-26T16:33:21.026Z,98461.00
2023-10-26T16:37:22.783Z,98459.25
2023-10-26T16:41:25.068Z,98464.41
2023-10-26T16:45:27.019Z,98473.91
2023-10-26T16:49:28.773Z,98477.34
2023-10-26T16:53:32.507Z,98476.56
2023-10-26T16:57:34.490Z,98485.16
2023-10-26T17:01:36.130Z,98480.88
2023-10-26T17:05:37.939Z,98480.94
2023-10-26T17:09:39.626Z,98491.34
2023-10-26T17:13:41.297Z,98477.63
2023-10-26T17:17:42.993Z,98491.38
2023-10-26T17:21:44.573Z,98503.41
2023-10-26T17:25:46.246Z,98493.16
2023-10-26T17:29:48.524Z,98494.94
2023-10-26T17:33:50.272Z,98494.09
2023-10-26T17:37:53.285Z,98493.25
2023-10-26T17:41:54.862Z,98491.53
2023-10-26T17:45:58.128Z,98506.13
2023-10-26T17:49:59.810Z,98510.44
2023-10-26T17:54:05.231Z,98518.19
2023-10-26T17:58:07.586Z,98511.31
2023-10-26T18:02:09.274Z,98505.31
2023-10-26T18:06:11.151Z,98508.72
2023-10-26T18:10:12.802Z,98516.44
2023-10-26T18:14:14.634Z,98512.16
2023-10-26T18:18:16.331Z,98508.75
2023-10-26T18:22:17.942Z,98506.19
2023-10-26T18:26:21.036Z,98513.91
2023-10-26T18:30:22.653Z,98511.38
2023-10-26T18:34:24.422Z,98521.63
2023-10-26T18:38:26.039Z,98521.66
2023-10-26T18:42:27.696Z,98519.97
2023-10-26T18:46:29.461Z,98514.00
2023-10-26T18:50:31.110Z,98502.88
2023-10-26T18:54:32.812Z,98499.50
2023-10-26T18:58:34.726Z,98501.22
2023-10-26T19:02:36.380Z,98505.50
2023-10-26T19:06:40.616Z,98504.66
2023-10-26T19:10:42.770Z,98508.09
2023-10-26T19:14:44.492Z,98509.88
2023-10-26T19:18:46.294Z,98500.47
2023-10-26T19:22:49.290Z,98501.34
2023-10-26T19:26:50.939Z,98500.50
2023-10-26T19:30:56.517Z,98506.53
2023-10-26T19:34:58.844Z,98506.53
2023-10-26T19:39:00.466Z,98516.84
2023-10-26T19:43:02.135Z,98526.28
2023-10-26T19:47:04.232Z,98525.44
2023-10-26T19:51:06.037Z,98519.44
2023-10-26T19:55:08.483Z,98519.44
2023-10-26T19:59:10.120Z,98517.69
2023-10-26T20:03:11.734Z,98511.72
2023-10-26T20:07:13.803Z,98504.84
2023-10-26T20:11:15.409Z,98509.16
2023-10-26T20:15:17.031Z,98506.56
2023-10-26T20:19:19.030Z,98505.75
2023-10-26T20:23:20.758Z,98506.56
2023-10-26T20:27:22.319Z,98503.13
2023-10-26T20:31:24.121Z,98499.72
2023-10-26T20:35:25.906Z,98497.16
2023-10-26T20:39:27.448Z,98498.03
2023-10-26T20:43:29.179Z,98488.56
2023-10-26T20:47:30.903Z,98480.88
2023-10-26T20:51:34.748Z,98492.91
2023-10-26T20:55:36.391Z,98479.19
2023-10-26T20:59:40.050Z,98475.78
2023-10-26T21:03:41.905Z,98472.38
2023-10-26T21:07:43.887Z,98463.78
2023-10-26T21:11:45.574Z,98458.66
2023-10-26T21:15:47.950Z,98453.53
2023-10-26T21:19:49.970Z,98442.41
2023-10-26T21:23:51.557Z,98449.25
2023-10-26T21:27:53.166Z,98439.84
2023-10-26T21:31:54.907Z,98438.16
2023-10-26T21:35:56.784Z,98441.59
2023-10-26T21:39:58.847Z,98441.56
2023-10-26T21:44:00.587Z,98435.59
2023-10-26T21:48:02.225Z,98433.03
2023-10-26T21:52:05.706Z,98415.91
2023-10-26T21:56:07.536Z,98405.63
2023-10-26T22:00:12.757Z,98409.91
2023-10-26T22:04:22.095Z,98397.06
2023-10-26T22:08:24.375Z,98380.78
2023-10-26T22:12:26.322Z,98378.22
2023-10-26T22:16:28.063Z,98384.22
2023-10-26T22:20:29.793Z,98376.50
2023-10-26T22:24:31.611Z,98374.00
2023-10-26T22:28:33.393Z,98376.56
2023-10-26T22:32:35.104Z,98364.56
2023-10-26T22:36:37.552Z,98355.19
2023-10-26T22:40:39.143Z,98350.06
2023-10-26T22:44:40.784Z,98344.06
2023-10-26T22:48:42.341Z,98344.94
2023-10-26T22:52:43.977Z,98342.38
2023-10-26T22:56:45.700Z,98342.38
2023-10-26T23:00:47.346Z,98332.97
2023-10-26T23:04:53.680Z,98337.22
2023-10-26T23:08:56.287Z,98337.22
2023-10-26T23:13:00.142Z,98338.06
2023-10-26T23:17:01.815Z,98334.63
2023-10-26T23:21:03.910Z,98335.44
2023-10-26T23:25:06.035Z,98339.75
2023-10-26T23:29:07.687Z,98334.63
2023-10-26T23:33:09.266Z,98337.19
2023-10-26T23:37:11.481Z,98338.03
2023-10-26T23:41:13.942Z,98343.19
2023-10-26T23:45:15.541Z,98349.19
2023-10-26T23:49:17.113Z,98350.94
2023-10-26T23:53:20.126Z,98353.50
2023-10-26T23:57:21.752Z,98356.94
